| time (UTC) | temp C | wind direction | speed KPH | gust KPH | rain 1hr cm | rain 24hr cm | rain mn cm | humidity % | barometer mb |
| 20260903073529 | 22 | 0 | 0.0 | 1.6 | 0.00 | 0.00 | 0.00 | 88 | 1018.4 |
| 20260903073059 | 23 | 0 | 0.0 | 1.6 | 0.00 | 0.00 | 0.00 | 88 | 1018.4 |
| 20260903072529 | 23 | 0 | 0.0 | 3.2 | 0.00 | 0.00 | 0.00 | 87 | 1018.2 |
| 20260903072029 | 23 | 0 | 0.0 | 4.8 | 0.00 | 0.00 | 0.00 | 87 | 1018.2 |
| 20260903071608 | 23 | 0 | 0.0 | 4.8 | 0.00 | 0.00 | 0.00 | 86 | 1018.2 |
| 20260903071027 | 23 | 0 | 1.6 | 4.8 | 0.00 | 0.00 | 0.00 | 85 | 1018.1 |
| 20260903070529 | 23 | 0 | 0.0 | 4.8 | 0.00 | 0.00 | 0.00 | 84 | 1018.2 |
| 20260903070054 | 24 | 124 | 1.6 | 4.8 | 0.00 | 0.00 | 0.00 | 83 | 1018.2 |
| 20260903065529 | 24 | 0 | 0.0 | 3.2 | 0.00 | 0.00 | 0.00 | 83 | 1018.4 |
| 20260903065026 | 25 | 9 | 1.6 | 4.8 | 0.00 | 0.00 | 0.00 | 81 | 1018.5 |
| 20260903064600 | 25 | 9 | 1.6 | 9.7 | 0.00 | 0.00 | 0.00 | 81 | 1018.4 |
| 20260903064029 | 25 | 9 | 1.6 | 11.3 | 0.00 | 0.00 | 0.00 | 81 | 1018.6 |
| 20260903063528 | 25 | 5 | 4.8 | 17.7 | 0.00 | 0.00 | 0.00 | 80 | 1018.7 |
| 20260903063101 | 25 | 360 | 4.8 | 17.7 | 0.00 | 0.00 | 0.00 | 81 | 1018.7 |
| 20260903062529 | 26 | 5 | 4.8 | 12.9 | 0.00 | 0.00 | 0.00 | 82 | 1018.9 |
| 20260903062035 | 26 | 0 | 0.0 | 14.5 | 0.00 | 0.00 | 0.00 | 83 | 1018.9 |
| 20260903061555 | 26 | 9 | 4.8 | 19.3 | 0.00 | 0.00 | 0.00 | 83 | 1019.0 |
| 20260903061029 | 26 | 343 | 6.4 | 19.3 | 0.00 | 0.00 | 0.00 | 83 | 1018.8 |
| 20260903060527 | 26 | 339 | 12.9 | 22.5 | 0.00 | 0.00 | 0.00 | 83 | 1018.9 |
| 20260903060050 | 26 | 5 | 12.9 | 22.5 | 0.00 | 0.00 | 0.00 | 83 | 1019.1 |
| 20260903055527 | 26 | 339 | 1.6 | 8.0 | 0.00 | 0.00 | 0.00 | 82 | 1018.7 |
| 20260903055031 | 26 | 208 | 0.0 | 4.8 | 0.00 | 0.00 | 0.00 | 82 | 1018.2 |
| 20260903054554 | 26 | 196 | 0.0 | 4.8 | 0.00 | 0.00 | 0.00 | 81 | 1018.3 |
| 20260903054030 | 26 | 0 | 0.0 | 6.4 | 0.00 | 0.00 | 0.00 | 81 | 1018.2 |
| 20260903053532 | 26 | 195 | 1.6 | 6.4 | 0.00 | 0.00 | 0.00 | 81 | 1018.0 |
| 20260903053059 | 27 | 192 | 1.6 | 8.0 | 0.00 | 0.00 | 0.00 | 81 | 1018.1 |
| 20260903052529 | 27 | 0 | 1.6 | 9.7 | 0.00 | 0.00 | 0.00 | 81 | 1018.1 |
| 20260903052028 | 27 | 218 | 3.2 | 9.7 | 0.00 | 0.00 | 0.00 | 80 | 1018.1 |
| 20260903051555 | 27 | 211 | 3.2 | 11.3 | 0.00 | 0.00 | 0.00 | 80 | 1017.9 |
| 20260903051028 | 27 | 269 | 1.6 | 14.5 | 0.00 | 0.00 | 0.00 | 80 | 1018.0 |
| 20260903050525 | 27 | 202 | 4.8 | 16.1 | 0.00 | 0.00 | 0.00 | 80 | 1017.9 |
| 20260903050056 | 27 | 222 | 3.2 | 16.1 | 0.00 | 0.00 | 0.00 | 80 | 1017.8 |
| 20260903045526 | 27 | 202 | 4.8 | 14.5 | 0.00 | 0.00 | 0.00 | 79 | 1017.6 |
| 20260903045028 | 27 | 219 | 4.8 | 17.7 | 0.00 | 0.00 | 0.00 | 79 | 1017.6 |
| 20260903044554 | 27 | 229 | 4.8 | 17.7 | 0.00 | 0.00 | 0.00 | 79 | 1017.6 |
| 20260903044025 | 27 | 240 | 3.2 | 17.7 | 0.00 | 0.00 | 0.00 | 80 | 1017.6 |
| 20260903043530 | 27 | 223 | 1.6 | 17.7 | 0.00 | 0.00 | 0.00 | 80 | 1017.6 |
| 20260903043056 | 27 | 209 | 4.8 | 17.7 | 0.00 | 0.00 | 0.00 | 80 | 1017.6 |
| 20260903042524 | 27 | 205 | 4.8 | 19.3 | 0.00 | 0.00 | 0.00 | 80 | 1017.4 |
| 20260903042025 | 27 | 211 | 4.8 | 19.3 | 0.00 | 0.00 | 0.00 | 80 | 1017.5 |
| 20260903041555 | 27 | 208 | 6.4 | 16.1 | 0.00 | 0.00 | 0.00 | 80 | 1017.4 |
| 20260903041025 | 27 | 221 | 8.0 | 16.1 | 0.00 | 0.00 | 0.00 | 80 | 1017.3 |
| 20260903040527 | 27 | 193 | 4.8 | 16.1 | 0.00 | 0.00 | 0.00 | 80 | 1017.2 |
| 20260903040054 | 27 | 206 | 8.0 | 19.3 | 0.00 | 0.00 | 0.00 | 80 | 1017.1 |
| 20260903035524 | 26 | 203 | 8.0 | 19.3 | 0.00 | 0.00 | 0.00 | 80 | 1017.1 |
| 20260903035025 | 26 | 197 | 8.0 | 16.1 | 0.00 | 0.00 | 0.00 | 80 | 1017.0 |
| 20260903034552 | 27 | 205 | 8.0 | 19.3 | 0.00 | 0.00 | 0.00 | 80 | 1017.0 |
| 20260903034025 | 27 | 210 | 9.7 | 19.3 | 0.00 | 0.00 | 0.00 | 79 | 1016.8 |
| 20260903033531 | 27 | 213 | 12.9 | 19.3 | 0.00 | 0.00 | 0.00 | 79 | 1016.7 |
| 20260903033109 | 27 | 209 | 11.3 | 19.3 | 0.00 | 0.00 | 0.00 | 79 | 1016.6 |
| 20260903032529 | 27 | 216 | 12.9 | 19.3 | 0.00 | 0.00 | 0.00 | 79 | 1016.6 |
| 20260903032025 | 27 | 214 | 11.3 | 19.3 | 0.00 | 0.00 | 0.00 | 79 | 1016.5 |
| 20260903031629 | 27 | 202 | 9.7 | 19.3 | 0.00 | 0.00 | 0.00 | 79 | 1016.7 |
| 20260903031027 | 27 | 188 | 9.7 | 17.7 | 0.00 | 0.00 | 0.00 | 79 | 1016.9 |
| 20260903030527 | 27 | 227 | 11.3 | 17.7 | 0.00 | 0.00 | 0.00 | 79 | 1017.1 |
| 20260903030056 | 27 | 215 | 9.7 | 14.5 | 0.00 | 0.00 | 0.00 | 79 | 1017.2 |
| 20260903025525 | 27 | 200 | 9.7 | 14.5 | 0.00 | 0.00 | 0.00 | 79 | 1017.3 |
| 20260903025026 | 27 | 201 | 9.7 | 14.5 | 0.00 | 0.00 | 0.00 | 78 | 1017.5 |
| 20260903024547 | 27 | 221 | 8.0 | 16.1 | 0.00 | 0.00 | 0.00 | 78 | 1017.6 |
| 20260903024025 | 27 | 198 | 8.0 | 16.1 | 0.00 | 0.00 | 0.00 | 78 | 1017.7 |
| 20260903023527 | 27 | 208 | 8.0 | 16.1 | 0.00 | 0.00 | 0.00 | 78 | 1017.8 |
| 20260903023056 | 27 | 207 | 8.0 | 17.7 | 0.00 | 0.00 | 0.00 | 78 | 1017.7 |
| 20260903022525 | 27 | 221 | 9.7 | 17.7 | 0.00 | 0.00 | 0.00 | 78 | 1017.7 |
| 20260903022029 | 27 | 204 | 6.4 | 12.9 | 0.00 | 0.00 | 0.00 | 78 | 1017.7 |
| 20260903021552 | 27 | 195 | 6.4 | 11.3 | 0.00 | 0.00 | 0.00 | 78 | 1017.9 |
| 20260903021030 | 27 | 202 | 6.4 | 11.3 | 0.00 | 0.00 | 0.00 | 78 | 1017.8 |
| 20260903020531 | 27 | 211 | 6.4 | 11.3 | 0.00 | 0.00 | 0.00 | 79 | 1017.9 |
| 20260903020054 | 27 | 197 | 8.0 | 11.3 | 0.00 | 0.00 | 0.00 | 79 | 1017.8 |
| 20260903015529 | 26 | 185 | 6.4 | 11.3 | 0.00 | 0.00 | 0.00 | 79 | 1017.9 |
| 20260903015028 | 26 | 194 | 4.8 | 11.3 | 0.00 | 0.00 | 0.00 | 79 | 1017.9 |
| 20260903014600 | 26 | 178 | 4.8 | 9.7 | 0.00 | 0.00 | 0.00 | 79 | 1017.9 |
| 20260903014028 | 27 | 198 | 4.8 | 8.0 | 0.00 | 0.00 | 0.00 | 78 | 1018.0 |
| 20260903013528 | 27 | 198 | 4.8 | 8.0 | 0.00 | 0.00 | 0.00 | 78 | 1018.0 |
| 20260903013055 | 27 | 198 | 4.8 | 11.3 | 0.00 | 0.00 | 0.00 | 78 | 1018.0 |
| 20260903012530 | 27 | 194 | 6.4 | 11.3 | 0.00 | 0.00 | 0.00 | 78 | 1018.0 |
| 20260903012027 | 27 | 197 | 6.4 | 11.3 | 0.00 | 0.00 | 0.00 | 78 | 1017.9 |
| 20260903011556 | 27 | 194 | 4.8 | 9.7 | 0.00 | 0.00 | 0.00 | 79 | 1018.0 |
| 20260903011028 | 27 | 197 | 3.2 | 8.0 | 0.00 | 0.00 | 0.00 | 79 | 1018.0 |
| 20260903010526 | 27 | 209 | 3.2 | 8.0 | 0.00 | 0.00 | 0.00 | 79 | 1017.9 |
| 20260903010050 | 27 | 206 | 4.8 | 9.7 | 0.00 | 0.00 | 0.00 | 79 | 1017.8 |
| 20260903005531 | 27 | 206 | 4.8 | 9.7 | 0.00 | 0.00 | 0.00 | 78 | 1017.8 |
| 20260903005027 | 27 | 205 | 4.8 | 11.3 | 0.00 | 0.00 | 0.00 | 78 | 1017.8 |
| 20260903004558 | 27 | 209 | 6.4 | 11.3 | 0.00 | 0.00 | 0.00 | 78 | 1017.7 |
| 20260903004028 | 27 | 208 | 4.8 | 8.0 | 0.00 | 0.00 | 0.00 | 78 | 1017.6 |
| 20260903003531 | 27 | 202 | 4.8 | 8.0 | 0.00 | 0.00 | 0.00 | 77 | 1017.7 |
| 20260903003101 | 27 | 209 | 6.4 | 9.7 | 0.00 | 0.00 | 0.00 | 77 | 1017.5 |
| 20260903002529 | 27 | 197 | 4.8 | 9.7 | 0.00 | 0.00 | 0.00 | 77 | 1017.4 |
| 20260903002027 | 28 | 201 | 4.8 | 9.7 | 0.00 | 0.00 | 0.00 | 77 | 1017.6 |
| 20260903001549 | 28 | 204 | 4.8 | 9.7 | 0.00 | 0.00 | 0.00 | 76 | 1017.4 |
| 20260903001026 | 28 | 200 | 4.8 | 8.0 | 0.00 | 0.00 | 0.00 | 76 | 1017.4 |
| 20260903000529 | 28 | 200 | 3.2 | 8.0 | 0.00 | 0.00 | 0.00 | 76 | 1017.4 |
| 20260903000052 | 28 | 200 | 4.8 | 9.7 | 0.00 | 0.00 | 0.00 | 75 | 1017.4 |
| 20260902235530 | 29 | 199 | 4.8 | 11.3 | 0.00 | 0.00 | 0.00 | 74 | 1017.4 |
| 20260902235029 | 29 | 201 | 6.4 | 11.3 | 0.00 | 0.00 | 0.00 | 74 | 1017.4 |
| 20260902234559 | 30 | 201 | 4.8 | 9.7 | 0.00 | 0.00 | 0.00 | 73 | 1017.5 |
| 20260902234028 | 30 | 202 | 4.8 | 9.7 | 0.00 | 0.00 | 0.00 | 72 | 1017.4 |
| 20260902233528 | 30 | 202 | 4.8 | 9.7 | 0.00 | 0.00 | 0.00 | 71 | 1017.5 |
| 20260902233101 | 30 | 203 | 4.8 | 12.9 | 0.00 | 0.00 | 0.00 | 71 | 1017.5 |
| 20260902232529 | 31 | 209 | 6.4 | 12.9 | 0.00 | 0.00 | 0.00 | 70 | 1017.3 |
| 20260902232028 | 31 | 199 | 6.4 | 12.9 | 0.00 | 0.00 | 0.00 | 69 | 1017.4 |
| 20260902231602 | 31 | 199 | 6.4 | 11.3 | 0.00 | 0.00 | 0.00 | 68 | 1017.3 |
| 20260902231029 | 31 | 191 | 6.4 | 11.3 | 0.00 | 0.00 | 0.00 | 69 | 1017.4 |
| 20260902230535 | 31 | 198 | 4.8 | 8.0 | 0.00 | 0.00 | 0.00 | 68 | 1017.3 |
| 20260902230053 | 31 | 201 | 3.2 | 11.3 | 0.00 | 0.00 | 0.00 | 67 | 1017.2 |
| 20260902225526 | 31 | 199 | 6.4 | 16.1 | 0.00 | 0.00 | 0.00 | 66 | 1017.4 |
| 20260902225032 | 32 | 226 | 8.0 | 16.1 | 0.00 | 0.00 | 0.00 | 65 | 1017.2 |
| 20260902224600 | 32 | 202 | 6.4 | 14.5 | 0.00 | 0.00 | 0.00 | 64 | 1017.3 |
| 20260902224029 | 32 | 294 | 8.0 | 19.3 | 0.00 | 0.00 | 0.00 | 64 | 1017.4 |
| 20260902223531 | 32 | 184 | 4.8 | 19.3 | 0.00 | 0.00 | 0.00 | 63 | 1017.3 |
| 20260902223100 | 32 | 234 | 4.8 | 19.3 | 0.00 | 0.00 | 0.00 | 64 | 1017.3 |
| 20260902222527 | 32 | 232 | 4.8 | 19.3 | 0.00 | 0.00 | 0.00 | 64 | 1017.4 |
| 20260902222032 | 32 | 203 | 8.0 | 19.3 | 0.00 | 0.00 | 0.00 | 64 | 1017.4 |
| 20260902221555 | 32 | 217 | 9.7 | 19.3 | 0.00 | 0.00 | 0.00 | 64 | 1017.3 |
| 20260902221028 | 32 | 209 | 11.3 | 19.3 | 0.00 | 0.00 | 0.00 | 63 | 1017.5 |
| 20260902220526 | 32 | 194 | 8.0 | 17.7 | 0.00 | 0.00 | 0.00 | 64 | 1017.5 |
| 20260902220057 | 32 | 221 | 11.3 | 17.7 | 0.00 | 0.00 | 0.00 | 63 | 1017.3 |
| 20260902215529 | 32 | 208 | 8.0 | 24.1 | 0.00 | 0.00 | 0.00 | 64 | 1017.4 |
| 20260902215030 | 32 | 191 | 9.7 | 24.1 | 0.00 | 0.00 | 0.00 | 62 | 1017.4 |
| 20260902214551 | 32 | 195 | 12.9 | 20.9 | 0.00 | 0.00 | 0.00 | 63 | 1017.5 |
| 20260902214029 | 32 | 209 | 6.4 | 16.1 | 0.00 | 0.00 | 0.00 | 63 | 1017.5 |
| 20260902213528 | 32 | 263 | 4.8 | 14.5 | 0.00 | 0.00 | 0.00 | 63 | 1017.5 |
| 20260902213104 | 33 | 240 | 6.4 | 14.5 | 0.00 | 0.00 | 0.00 | 62 | 1017.7 |
| 20260902212528 | 33 | 266 | 6.4 | 19.3 | 0.00 | 0.00 | 0.00 | 60 | 1017.6 |
| 20260902212027 | 33 | 250 | 8.0 | 19.3 | 0.00 | 0.00 | 0.00 | 60 | 1017.7 |
| 20260902211554 | 33 | 210 | 3.2 | 19.3 | 0.00 | 0.00 | 0.00 | 60 | 1017.7 |
| 20260902211032 | 33 | 232 | 8.0 | 19.3 | 0.00 | 0.00 | 0.00 | 59 | 1017.8 |
| 20260902210527 | 33 | 196 | 8.0 | 16.1 | 0.00 | 0.00 | 0.00 | 58 | 1017.9 |
| 20260902210050 | 34 | 207 | 6.4 | 22.5 | 0.00 | 0.00 | 0.00 | 59 | 1017.9 |
| 20260902205529 | 34 | 255 | 9.7 | 22.5 | 0.00 | 0.00 | 0.00 | 58 | 1018.0 |
| 20260902205029 | 34 | 232 | 11.3 | 22.5 | 0.00 | 0.00 | 0.00 | 57 | 1017.9 |
| 20260902204548 | 34 | 217 | 9.7 | 20.9 | 0.00 | 0.00 | 0.00 | 57 | 1018.0 |
| 20260902204030 | 34 | 209 | 4.8 | 17.7 | 0.00 | 0.00 | 0.00 | 59 | 1018.0 |
| 20260902203529 | 34 | 236 | 8.0 | 17.7 | 0.00 | 0.00 | 0.00 | 58 | 1018.2 |
| 20260902203109 | 34 | 246 | 6.4 | 17.7 | 0.00 | 0.00 | 0.00 | 57 | 1018.1 |
| 20260902202528 | 34 | 248 | 6.4 | 17.7 | 0.00 | 0.00 | 0.00 | 58 | 1018.1 |
| 20260902202029 | 34 | 237 | 9.7 | 22.5 | 0.00 | 0.00 | 0.00 | 58 | 1018.2 |
| 20260902201556 | 34 | 273 | 9.7 | 22.5 | 0.00 | 0.00 | 0.00 | 58 | 1018.3 |
| 20260902201027 | 34 | 192 | 6.4 | 19.3 | 0.00 | 0.00 | 0.00 | 60 | 1018.3 |
| 20260902200526 | 34 | 263 | 6.4 | 19.3 | 0.00 | 0.00 | 0.00 | 59 | 1018.2 |
| 20260902200057 | 34 | 204 | 8.0 | 19.3 | 0.00 | 0.00 | 0.00 | 57 | 1018.3 |
| 20260902195533 | 34 | 227 | 8.0 | 20.9 | 0.00 | 0.00 | 0.00 | 58 | 1018.4 |
| 20260902195034 | 34 | 277 | 6.4 | 20.9 | 0.00 | 0.00 | 0.00 | 59 | 1018.4 |
| 20260902194548 | 34 | 252 | 9.7 | 22.5 | 0.00 | 0.00 | 0.00 | 58 | 1018.4 |
| 20260902194029 | 34 | 185 | 6.4 | 24.1 | 0.00 | 0.00 | 0.00 | 59 | 1018.4 |
| 20260902193528 | 34 | 205 | 16.1 | 24.1 | 0.00 | 0.00 | 0.00 | 59 | 1018.4 |
| 20260902193058 | 35 | 206 | 8.0 | 14.5 | 0.00 | 0.00 | 0.00 | 59 | 1018.6 |
| 20260902192527 | 35 | 268 | 4.8 | 14.5 | 0.00 | 0.00 | 0.00 | 59 | 1018.5 |
| 20260902192033 | 34 | 293 | 4.8 | 16.1 | 0.00 | 0.00 | 0.00 | 62 | 1018.6 |
| 20260902191555 | 34 | 262 | 8.0 | 17.7 | 0.00 | 0.00 | 0.00 | 58 | 1018.7 |
| 20260902191033 | 34 | 259 | 4.8 | 17.7 | 0.00 | 0.00 | 0.00 | 60 | 1018.7 |
| 20260902190528 | 34 | 216 | 8.0 | 22.5 | 0.00 | 0.00 | 0.00 | 60 | 1018.8 |
| 20260902190052 | 34 | 188 | 8.0 | 22.5 | 0.00 | 0.00 | 0.00 | 61 | 1018.7 |
| 20260902185526 | 34 | 247 | 6.4 | 17.7 | 0.00 | 0.00 | 0.00 | 61 | 1018.9 |
| 20260902185026 | 33 | 275 | 4.8 | 19.3 | 0.00 | 0.00 | 0.00 | 61 | 1018.9 |
| 20260902184558 | 34 | 205 | 9.7 | 19.3 | 0.00 | 0.00 | 0.00 | 59 | 1019.0 |
| 20260902184032 | 34 | 266 | 8.0 | 14.5 | 0.00 | 0.00 | 0.00 | 62 | 1019.0 |
| 20260902183527 | 34 | 219 | 6.4 | 16.1 | 0.00 | 0.00 | 0.00 | 61 | 1019.1 |
| 20260902183057 | 33 | 259 | 8.0 | 19.3 | 0.00 | 0.00 | 0.00 | 61 | 1019.2 |
| 20260902182529 | 33 | 234 | 8.0 | 19.3 | 0.00 | 0.00 | 0.00 | 62 | 1019.1 |
| 20260902182030 | 33 | 200 | 6.4 | 17.7 | 0.00 | 0.00 | 0.00 | 64 | 1019.2 |
| 20260902181556 | 33 | 203 | 8.0 | 14.5 | 0.00 | 0.00 | 0.00 | 64 | 1019.2 |
| 20260902181026 | 33 | 252 | 4.8 | 14.5 | 0.00 | 0.00 | 0.00 | 64 | 1019.3 |
| 20260902180527 | 33 | 269 | 9.7 | 19.3 | 0.00 | 0.00 | 0.00 | 63 | 1019.3 |
| 20260902180055 | 33 | 261 | 9.7 | 19.3 | 0.00 | 0.00 | 0.00 | 62 | 1019.3 |
| 20260902175526 | 33 | 195 | 4.8 | 11.3 | 0.00 | 0.00 | 0.00 | 67 | 1019.3 |
| 20260902175026 | 33 | 220 | 4.8 | 16.1 | 0.00 | 0.00 | 0.00 | 66 | 1019.4 |
| 20260902174548 | 33 | 233 | 6.4 | 16.1 | 0.00 | 0.00 | 0.00 | 63 | 1019.5 |
| 20260902174029 | 33 | 223 | 6.4 | 17.7 | 0.00 | 0.00 | 0.00 | 64 | 1019.6 |
| 20260902173531 | 33 | 198 | 9.7 | 17.7 | 0.00 | 0.00 | 0.00 | 65 | 1019.6 |
| 20260902173057 | 33 | 184 | 4.8 | 20.9 | 0.00 | 0.00 | 0.00 | 65 | 1019.8 |
| 20260902172527 | 33 | 274 | 3.2 | 22.5 | 0.00 | 0.00 | 0.00 | 67 | 1019.9 |
| 20260902172027 | 32 | 191 | 11.3 | 22.5 | 0.00 | 0.00 | 0.00 | 69 | 1020.1 |
| 20260902171601 | 32 | 209 | 6.4 | 14.5 | 0.00 | 0.00 | 0.00 | 69 | 1020.1 |
| 20260902171034 | 32 | 172 | 4.8 | 12.9 | 0.00 | 0.00 | 0.00 | 71 | 1020.2 |
| 20260902170528 | 32 | 213 | 8.0 | 14.5 | 0.00 | 0.00 | 0.00 | 69 | 1020.1 |
| 20260902170057 | 31 | 210 | 6.4 | 14.5 | 0.00 | 0.00 | 0.00 | 68 | 1020.3 |
| 20260902165527 | 31 | 194 | 4.8 | 12.9 | 0.00 | 0.00 | 0.00 | 72 | 1020.3 |
| 20260902165029 | 31 | 233 | 3.2 | 12.9 | 0.00 | 0.00 | 0.00 | 69 | 1020.4 |
| 20260902164555 | 31 | 195 | 6.4 | 12.9 | 0.00 | 0.00 | 0.00 | 71 | 1020.4 |
| 20260902164027 | 31 | 211 | 6.4 | 12.9 | 0.00 | 0.00 | 0.00 | 69 | 1020.4 |
| 20260902163526 | 31 | 182 | 4.8 | 9.7 | 0.00 | 0.00 | 0.00 | 72 | 1020.4 |
| 20260902163101 | 31 | 197 | 4.8 | 8.0 | 0.00 | 0.00 | 0.00 | 71 | 1020.4 |
| 20260902162526 | 31 | 200 | 3.2 | 8.0 | 0.00 | 0.00 | 0.00 | 70 | 1020.4 |
| 20260902162030 | 31 | 202 | 3.2 | 11.3 | 0.00 | 0.00 | 0.00 | 70 | 1020.4 |
| 20260902161601 | 31 | 205 | 4.8 | 16.1 | 0.00 | 0.00 | 0.00 | 69 | 1020.4 |
| 20260902161030 | 31 | 251 | 3.2 | 16.1 | 0.00 | 0.00 | 0.00 | 70 | 1020.4 |
| 20260902160529 | 31 | 169 | 3.2 | 16.1 | 0.00 | 0.00 | 0.00 | 71 | 1020.4 |
| 20260902160100 | 31 | 206 | 1.6 | 8.0 | 0.00 | 0.00 | 0.00 | 70 | 1020.4 |
| 20260902155528 | 31 | 325 | 3.2 | 8.0 | 0.00 | 0.00 | 0.00 | 70 | 1020.5 |
| 20260902155032 | 31 | 209 | 4.8 | 12.9 | 0.00 | 0.00 | 0.00 | 71 | 1020.4 |
| 20260902154553 | 31 | 0 | 3.2 | 12.9 | 0.00 | 0.00 | 0.00 | 74 | 1020.5 |
| 20260902154027 | 31 | 222 | 3.2 | 9.7 | 0.00 | 0.00 | 0.00 | 73 | 1020.4 |
| 20260902153526 | 31 | 239 | 3.2 | 11.3 | 0.00 | 0.00 | 0.00 | 72 | 1020.4 |
| 20260902153048 | 30 | 211 | 3.2 | 12.9 | 0.00 | 0.00 | 0.00 | 73 | 1020.5 |
| 20260902152525 | 30 | 204 | 6.4 | 12.9 | 0.00 | 0.00 | 0.00 | 74 | 1020.5 |
| 20260902152029 | 30 | 291 | 3.2 | 11.3 | 0.00 | 0.00 | 0.00 | 77 | 1020.5 |
| 20260902151554 | 30 | 227 | 6.4 | 11.3 | 0.00 | 0.00 | 0.00 | 74 | 1020.5 |
| 20260902151027 | 30 | 211 | 1.6 | 8.0 | 0.00 | 0.00 | 0.00 | 75 | 1020.6 |
| 20260902150526 | 30 | 205 | 3.2 | 9.7 | 0.00 | 0.00 | 0.00 | 76 | 1020.5 |
| 20260902150055 | 30 | 240 | 4.8 | 14.5 | 0.00 | 0.00 | 0.00 | 77 | 1020.5 |
| 20260902145529 | 30 | 212 | 4.8 | 14.5 | 0.00 | 0.00 | 0.00 | 77 | 1020.5 |
| 20260902145028 | 30 | 193 | 1.6 | 12.9 | 0.00 | 0.00 | 0.00 | 77 | 1020.5 |
| 20260902144551 | 30 | 223 | 3.2 | 9.7 | 0.00 | 0.00 | 0.00 | 74 | 1020.5 |
| 20260902144027 | 29 | 250 | 3.2 | 9.7 | 0.00 | 0.00 | 0.00 | 78 | 1020.5 |
| 20260902143527 | 29 | 275 | 3.2 | 12.9 | 0.00 | 0.00 | 0.00 | 77 | 1020.5 |
| 20260902143049 | 29 | 223 | 3.2 | 12.9 | 0.00 | 0.00 | 0.00 | 78 | 1020.5 |
| 20260902142527 | 28 | 272 | 6.4 | 12.9 | 0.00 | 0.00 | 0.00 | 78 | 1020.4 |
| 20260902142028 | 28 | 225 | 3.2 | 16.1 | 0.00 | 0.00 | 0.00 | 80 | 1020.4 |
| 20260902141554 | 28 | 236 | 4.8 | 16.1 | 0.00 | 0.00 | 0.00 | 81 | 1020.4 |
| 20260902141027 | 28 | 211 | 3.2 | 16.1 | 0.00 | 0.00 | 0.00 | 81 | 1020.2 |
| 20260902140526 | 27 | 227 | 4.8 | 16.1 | 0.00 | 0.00 | 0.00 | 81 | 1020.1 |
| 20260902140055 | 27 | 198 | 8.0 | 16.1 | 0.00 | 0.00 | 0.00 | 82 | 1020.1 |
| 20260902135527 | 27 | 233 | 6.4 | 14.5 | 0.00 | 0.00 | 0.00 | 83 | 1020.1 |
| 20260902135027 | 27 | 205 | 3.2 | 16.1 | 0.00 | 0.00 | 0.00 | 82 | 1020.1 |
| 20260902134558 | 27 | 209 | 4.8 | 16.1 | 0.00 | 0.00 | 0.00 | 83 | 1020.0 |
| 20260902134029 | 27 | 210 | 6.4 | 16.1 | 0.00 | 0.00 | 0.00 | 83 | 1020.1 |
| 20260902133528 | 27 | 186 | 6.4 | 12.9 | 0.00 | 0.00 | 0.00 | 84 | 1020.0 |
| 20260902133048 | 27 | 205 | 6.4 | 12.9 | 0.00 | 0.00 | 0.00 | 84 | 1020.1 |
| 20260902132527 | 26 | 205 | 6.4 | 14.5 | 0.00 | 0.00 | 0.00 | 85 | 1020.0 |
| 20260902132025 | 26 | 201 | 8.0 | 14.5 | 0.00 | 0.00 | 0.00 | 84 | 1020.0 |
| 20260902131557 | 26 | 215 | 6.4 | 16.1 | 0.00 | 0.00 | 0.00 | 85 | 1020.0 |
| 20260902131028 | 26 | 202 | 6.4 | 16.1 | 0.00 | 0.00 | 0.00 | 85 | 1020.1 |
| 20260902130528 | 26 | 202 | 9.7 | 14.5 | 0.00 | 0.00 | 0.00 | 86 | 1020.0 |
| 20260902130051 | 26 | 206 | 4.8 | 9.7 | 0.00 | 0.00 | 0.00 | 86 | 1020.0 |
| 20260902125528 | 26 | 211 | 3.2 | 9.7 | 0.00 | 0.00 | 0.00 | 87 | 1020.1 |
| 20260902125033 | 25 | 204 | 3.2 | 9.7 | 0.00 | 0.00 | 0.00 | 88 | 1020.2 |
| 20260902124550 | 25 | 198 | 4.8 | 9.7 | 0.00 | 0.00 | 0.00 | 87 | 1020.1 |
| 20260902124025 | 25 | 207 | 4.8 | 9.7 | 0.00 | 0.00 | 0.00 | 88 | 1020.3 |
| 20260902123525 | 25 | 200 | 4.8 | 8.0 | 0.00 | 0.00 | 0.00 | 88 | 1020.2 |
| 20260902123104 | 25 | 203 | 3.2 | 6.4 | 0.00 | 0.00 | 0.00 | 88 | 1020.3 |
| 20260902122526 | 25 | 205 | 3.2 | 4.8 | 0.00 | 0.00 | 0.00 | 89 | 1020.2 |
| 20260902122028 | 25 | 205 | 1.6 | 6.4 | 0.00 | 0.00 | 0.00 | 89 | 1020.3 |
| 20260902121555 | 25 | 205 | 1.6 | 8.0 | 0.00 | 0.00 | 0.00 | 89 | 1020.1 |
| 20260902121026 | 24 | 205 | 3.2 | 8.0 | 0.00 | 0.00 | 0.00 | 89 | 1020.1 |
| 20260902120530 | 24 | 207 | 1.6 | 9.7 | 0.00 | 0.00 | 0.00 | 90 | 1020.1 |
| 20260902120106 | 24 | 0 | 0.0 | 12.9 | 0.00 | 0.00 | 0.00 | 91 | 1020.1 |
| 20260902115525 | 23 | 201 | 6.4 | 12.9 | 0.00 | 0.00 | 0.00 | 91 | 1020.0 |
| 20260902115026 | 23 | 198 | 6.4 | 11.3 | 0.00 | 0.00 | 0.00 | 91 | 1019.8 |
| 20260902114550 | 23 | 202 | 6.4 | 9.7 | 0.00 | 0.00 | 0.00 | 92 | 1019.7 |
| 20260902114026 | 23 | 210 | 4.8 | 8.0 | 0.00 | 0.00 | 0.00 | 92 | 1019.7 |
| 20260902113526 | 23 | 203 | 4.8 | 8.0 | 0.00 | 0.00 | 0.00 | 92 | 1019.8 |
| 20260902113047 | 23 | 203 | 3.2 | 6.4 | 0.00 | 0.00 | 0.00 | 92 | 1019.7 |
| 20260902112525 | 23 | 204 | 3.2 | 6.4 | 0.00 | 0.00 | 0.00 | 92 | 1019.6 |
| 20260902112028 | 23 | 203 | 3.2 | 6.4 | 0.00 | 0.00 | 0.00 | 92 | 1019.5 |
| 20260902111555 | 23 | 203 | 3.2 | 8.0 | 0.00 | 0.00 | 0.00 | 92 | 1019.5 |
| 20260902111026 | 22 | 205 | 3.2 | 8.0 | 0.00 | 0.00 | 0.00 | 92 | 1019.5 |
| 20260902110528 | 22 | 205 | 3.2 | 8.0 | 0.00 | 0.00 | 0.00 | 92 | 1019.5 |
| 20260902110052 | 22 | 219 | 3.2 | 8.0 | 0.00 | 0.00 | 0.00 | 92 | 1019.4 |
| 20260902105528 | 22 | 203 | 4.8 | 8.0 | 0.00 | 0.00 | 0.00 | 92 | 1019.5 |
| 20260902105028 | 22 | 203 | 4.8 | 9.7 | 0.00 | 0.00 | 0.00 | 92 | 1019.4 |
| 20260902104552 | 22 | 205 | 4.8 | 9.7 | 0.00 | 0.00 | 0.00 | 92 | 1019.2 |
| 20260902104027 | 22 | 212 | 4.8 | 8.0 | 0.00 | 0.00 | 0.00 | 92 | 1019.3 |
| 20260902103525 | 23 | 205 | 3.2 | 8.0 | 0.00 | 0.00 | 0.00 | 92 | 1019.3 |
| 20260902103049 | 22 | 206 | 3.2 | 8.0 | 0.00 | 0.00 | 0.00 | 93 | 1019.3 |
| 20260902102530 | 22 | 204 | 3.2 | 8.0 | 0.00 | 0.00 | 0.00 | 93 | 1019.2 |
| 20260902102030 | 22 | 205 | 1.6 | 6.4 | 0.00 | 0.00 | 0.00 | 93 | 1019.3 |
| 20260902101549 | 22 | 0 | 1.6 | 6.4 | 0.00 | 0.00 | 0.00 | 94 | 1019.3 |
| 20260902101030 | 22 | 207 | 1.6 | 8.0 | 0.00 | 0.00 | 0.00 | 94 | 1019.2 |
| 20260902100529 | 22 | 207 | 3.2 | 8.0 | 0.00 | 0.00 | 0.00 | 94 | 1019.2 |
| 20260902100105 | 22 | 208 | 4.8 | 8.0 | 0.00 | 0.00 | 0.00 | 95 | 1019.2 |
| 20260902095526 | 22 | 195 | 4.8 | 8.0 | 0.00 | 0.00 | 0.00 | 94 | 1019.1 |
| 20260902095027 | 22 | 188 | 4.8 | 8.0 | 0.00 | 0.00 | 0.00 | 95 | 1019.2 |
| 20260902094554 | 22 | 183 | 3.2 | 6.4 | 0.00 | 0.00 | 0.00 | 95 | 1019.3 |
| 20260902094026 | 22 | 182 | 3.2 | 8.0 | 0.00 | 0.00 | 0.00 | 95 | 1019.4 |
| 20260902093526 | 22 | 182 | 4.8 | 9.7 | 0.00 | 0.00 | 0.00 | 95 | 1019.4 |
| 20260902093049 | 21 | 184 | 4.8 | 9.7 | 0.00 | 0.00 | 0.00 | 95 | 1019.4 |
| 20260902092529 | 21 | 167 | 6.4 | 9.7 | 0.00 | 0.00 | 0.00 | 95 | 1019.4 |
| 20260902092029 | 21 | 164 | 4.8 | 8.0 | 0.00 | 0.00 | 0.00 | 94 | 1019.5 |
| 20260902091556 | 21 | 163 | 1.6 | 6.4 | 0.00 | 0.00 | 0.00 | 95 | 1019.6 |
| 20260902091028 | 21 | 163 | 1.6 | 6.4 | 0.00 | 0.00 | 0.00 | 95 | 1019.6 |
| 20260902090528 | 21 | 163 | 1.6 | 6.4 | 0.00 | 0.00 | 0.00 | 95 | 1019.5 |
| 20260902090053 | 21 | 163 | 3.2 | 6.4 | 0.00 | 0.00 | 0.00 | 94 | 1019.6 |
| 20260902085530 | 21 | 163 | 0.0 | 3.2 | 0.00 | 0.00 | 0.00 | 95 | 1019.7 |
| 20260902085028 | 21 | 0 | 0.0 | 3.2 | 0.00 | 0.00 | 0.00 | 95 | 1019.7 |
| 20260902084550 | 21 | 0 | 0.0 | 6.4 | 0.00 | 0.00 | 0.00 | 95 | 1019.7 |
| 20260902084026 | 21 | 163 | 1.6 | 6.4 | 0.00 | 0.00 | 0.00 | 95 | 1019.6 |
| 20260902083525 | 21 | 163 | 3.2 | 6.4 | 0.00 | 0.00 | 0.00 | 95 | 1019.5 |
| 20260902083052 | 21 | 163 | 1.6 | 8.0 | 0.00 | 0.00 | 0.00 | 95 | 1019.4 |
| 20260902082526 | 21 | 163 | 3.2 | 8.0 | 0.00 | 0.00 | 0.00 | 95 | 1019.5 |
| 20260902082026 | 21 | 168 | 4.8 | 8.0 | 0.00 | 0.00 | 0.00 | 95 | 1019.3 |
| 20260902081555 | 21 | 168 | 3.2 | 6.4 | 0.00 | 0.00 | 0.00 | 95 | 1019.3 |
| 20260902081029 | 21 | 168 | 3.2 | 6.4 | 0.00 | 0.00 | 0.00 | 95 | 1019.4 |
| 20260902080528 | 21 | 168 | 3.2 | 6.4 | 0.00 | 0.00 | 0.00 | 95 | 1019.3 |
| 20260902080057 | 21 | 168 | 3.2 | 6.4 | 0.00 | 0.00 | 0.00 | 95 | 1019.4 |
| 20260902075525 | 21 | 168 | 3.2 | 6.4 | 0.00 | 0.00 | 0.00 | 95 | 1019.3 |
| 20260902075029 | 21 | 168 | 3.2 | 6.4 | 0.00 | 0.00 | 0.00 | 95 | 1019.2 |
| 20260902074556 | 21 | 168 | 3.2 | 6.4 | 0.00 | 0.00 | 0.00 | 95 | 1019.2 |
| 20260902074026 | 21 | 168 | 1.6 | 6.4 | 0.00 | 0.00 | 0.00 | 95 | 1019.2 |